Time;durP1;ratioP1;P1;durP2;ratioP2;P2;SDS_P1;SDS_P2;PMS_P1;PMS_P2;Temp;Humidity;BMP_temperature;BMP_pressure;BME280_temperature;BME280_humidity;BME280_pressure;Samples;Min_cycle;Max_cycle;Signal;HPM_P1;HPM_P2
2022/11/29 00:00:24;;;;;;;33.90;12.82;;;;;;;;;;4988769;28;20058;-88
2022/11/29 00:03:16;;;;;;;32.38;12.85;;;;;;;;;;4992597;28;20181;-88
2022/11/29 00:05:44;;;;;;;28.10;12.30;;;;;;;;;;4988159;28;20050;-87
2022/11/29 00:08:12;;;;;;;30.42;12.13;;;;;;;;;;5005428;28;20045;-87
2022/11/29 00:10:40;;;;;;;29.67;11.55;;;;;;;;;;5006959;28;20046;-87
2022/11/29 00:13:08;;;;;;;30.67;13.57;;;;;;;;;;4984043;28;20061;-87
2022/11/29 00:16:24;;;;;;;33.45;12.27;;;;;;;;;;5006598;28;20069;-87
2022/11/29 00:18:52;;;;;;;29.48;12.27;;;;;;;;;;5002965;28;20491;-87
2022/11/29 00:21:20;;;;;;;33.28;13.13;;;;;;;;;;5007416;28;20057;-87
2022/11/29 00:23:58;;;;;;;25.65;11.07;;;;;;;;;;5007684;28;20050;-87
2022/11/29 00:26:26;;;;;;;34.78;14.82;;;;;;;;;;5007936;28;20057;-88
2022/11/29 00:28:54;;;;;;;32.58;13.98;;;;;;;;;;4988852;28;20056;-87
2022/11/29 00:31:25;;;;;;;33.30;13.93;;;;;;;;;;5007187;28;20073;-87
2022/11/29 00:33:52;;;;;;;30.60;12.75;;;;;;;;;;5005990;28;20050;-88
2022/11/29 00:36:20;;;;;;;31.38;13.45;;;;;;;;;;4994383;28;20046;-87
2022/11/29 00:38:52;;;;;;;27.17;11.70;;;;;;;;;;4986828;28;20056;-87
2022/11/29 00:41:25;;;;;;;33.35;14.25;;;;;;;;;;5008148;28;20046;-87
2022/11/29 00:44:17;;;;;;;31.02;13.23;;;;;;;;;;4972427;28;20041;-87
2022/11/29 00:46:48;;;;;;;36.60;12.88;;;;;;;;;;4988769;28;20050;-87
2022/11/29 00:49:16;;;;;;;32.72;14.10;;;;;;;;;;5005457;28;20161;-87
2022/11/29 00:51:44;;;;;;;34.33;13.57;;;;;;;;;;5007106;28;20053;-87
2022/11/29 00:54:18;;;;;;;34.92;15.05;;;;;;;;;;5007725;28;20050;-87
2022/11/29 00:56:46;;;;;;;33.05;14.88;;;;;;;;;;5005360;28;20085;-87
2022/11/29 00:59:14;;;;;;;35.75;13.90;;;;;;;;;;5005525;28;20049;-87
2022/11/29 01:01:42;;;;;;;33.65;14.10;;;;;;;;;;5009928;28;20046;-87
2022/11/29 01:04:10;;;;;;;37.85;14.23;;;;;;;;;;5006477;28;20093;-88
2022/11/29 01:06:38;;;;;;;34.38;13.73;;;;;;;;;;5011310;28;20057;-88
2022/11/29 01:09:30;;;;;;;32.13;14.40;;;;;;;;;;5008575;28;20037;-88
2022/11/29 01:11:58;;;;;;;32.08;13.68;;;;;;;;;;5011853;28;20053;-87
2022/11/29 01:14:26;;;;;;;39.65;14.82;;;;;;;;;;5009074;28;20415;-87
2022/11/29 01:16:58;;;;;;;30.90;13.15;;;;;;;;;;5010486;28;20046;-87
2022/11/29 01:19:26;;;;;;;35.45;14.85;;;;;;;;;;5010451;28;20046;-87
2022/11/29 01:22:04;;;;;;;36.92;14.55;;;;;;;;;;5011156;28;20061;-88
2022/11/29 01:24:32;;;;;;;34.22;14.90;;;;;;;;;;5007220;28;20133;-87
2022/11/29 01:27:00;;;;;;;36.17;14.02;;;;;;;;;;5009887;28;20050;-87
2022/11/29 01:29:28;;;;;;;36.25;14.52;;;;;;;;;;5009635;28;20056;-87
2022/11/29 01:31:56;;;;;;;31.15;12.73;;;;;;;;;;5008246;28;20061;-87
2022/11/29 01:34:24;;;;;;;29.75;13.65;;;;;;;;;;5009799;28;20614;-87
2022/11/29 01:36:52;;;;;;;34.25;13.70;;;;;;;;;;5011440;28;20136;-87
2022/11/29 01:39:20;;;;;;;34.50;14.18;;;;;;;;;;4975824;28;20049;-86
2022/11/29 01:41:48;;;;;;;39.47;15.00;;;;;;;;;;4994124;28;20050;-87
2022/11/29 01:44:15;;;;;;;36.85;15.63;;;;;;;;;;5010970;28;20398;-88
2022/11/29 01:46:46;;;;;;;38.08;14.13;;;;;;;;;;4977201;28;20105;-87
2022/11/29 01:50:04;;;;;;;40.15;14.80;;;;;;;;;;5007411;28;20045;-87
2022/11/29 01:52:32;;;;;;;25.80;12.07;;;;;;;;;;4998415;28;20049;-87
2022/11/29 01:55:02;;;;;;;28.67;10.48;;;;;;;;;;5011187;28;20545;-87
2022/11/29 01:57:32;;;;;;;39.85;14.55;;;;;;;;;;5007915;28;20082;-88
2022/11/29 02:00:07;;;;;;;37.17;15.20;;;;;;;;;;4989285;28;20054;-87
2022/11/29 02:03:02;;;;;;;45.40;16.48;;;;;;;;;;4992938;28;20443;-87
2022/11/29 02:05:54;;;;;;;37.03;15.20;;;;;;;;;;5020789;28;20057;-87
2022/11/29 02:08:32;;;;;;;40.95;15.25;;;;;;;;;;5007831;28;20038;-87
2022/11/29 02:11:20;;;;;;;39.25;16.50;;;;;;;;;;5023909;28;20158;-86
2022/11/29 02:14:00;;;;;;;34.95;14.20;;;;;;;;;;5008960;28;20058;-87
2022/11/29 02:16:35;;;;;;;37.17;15.57;;;;;;;;;;5009411;28;20049;-87
2022/11/29 02:19:23;;;;;;;41.45;14.27;;;;;;;;;;5008679;28;20103;-87
2022/11/29 02:26:08;;;;;;;40.72;15.30;;;;;;;;;;5024066;28;20054;-87
2022/11/29 02:28:39;;;;;;;32.55;15.70;;;;;;;;;;4946149;29;20603;-87
2022/11/29 02:32:07;;;;;;;37.20;14.52;;;;;;;;;;4948271;29;20043;-87
2022/11/29 02:34:50;;;;;;;35.75;14.38;;;;;;;;;;4891214;29;20084;-87
2022/11/29 02:37:39;;;;;;;37.63;13.65;;;;;;;;;;4891821;29;20294;-87
2022/11/29 02:40:50;;;;;;;37.28;15.57;;;;;;;;;;4892273;29;20059;-87
2022/11/29 02:43:28;;;;;;;32.75;13.35;;;;;;;;;;4891938;29;20458;-87
2022/11/29 02:46:20;;;;;;;40.80;15.43;;;;;;;;;;4891129;29;20454;-88
2022/11/29 02:49:09;;;;;;;39.08;14.38;;;;;;;;;;4881994;29;20068;-87
2022/11/29 02:51:45;;;;;;;41.67;17.25;;;;;;;;;;4889867;29;20053;-88
2022/11/29 02:55:03;;;;;;;45.15;16.13;;;;;;;;;;4892714;29;20459;-87
2022/11/29 02:58:18;;;;;;;29.75;12.32;;;;;;;;;;4890288;29;20063;-87
2022/11/29 03:01:21;;;;;;;39.97;15.30;;;;;;;;;;4853803;29;20096;-87
2022/11/29 03:04:06;;;;;;;44.97;16.38;;;;;;;;;;4853461;29;20132;-87
2022/11/29 03:07:02;;;;;;;41.90;16.80;;;;;;;;;;4834351;29;20058;-87
2022/11/29 03:09:57;;;;;;;42.22;15.35;;;;;;;;;;4835331;29;20118;-87
2022/11/29 03:12:51;;;;;;;44.63;15.52;;;;;;;;;;4905592;29;20142;-87
2022/11/29 03:15:48;;;;;;;47.25;17.73;;;;;;;;;;4905181;29;20146;-87
2022/11/29 03:18:30;;;;;;;41.42;16.85;;;;;;;;;;4908997;29;20056;-88
2022/11/29 03:21:16;;;;;;;40.65;15.45;;;;;;;;;;4908484;29;20092;-87
2022/11/29 03:24:18;;;;;;;41.85;15.73;;;;;;;;;;4911389;29;20052;-87
2022/11/29 03:26:58;;;;;;;41.33;14.27;;;;;;;;;;4909049;29;20284;-87
2022/11/29 03:29:58;;;;;;;41.00;14.93;;;;;;;;;;4910483;29;20055;-87
2022/11/29 03:32:28;;;;;;;49.33;17.17;;;;;;;;;;4908068;29;20087;-87
2022/11/29 03:35:03;;;;;;;38.90;16.58;;;;;;;;;;4910177;29;20076;-87
2022/11/29 03:37:57;;;;;;;44.28;15.48;;;;;;;;;;4953301;28;20113;-87
2022/11/29 03:40:55;;;;;;;44.17;16.23;;;;;;;;;;4974727;28;20504;-87
2022/11/29 03:43:53;;;;;;;39.45;14.50;;;;;;;;;;4992382;28;20072;-87
2022/11/29 03:46:36;;;;;;;43.47;16.85;;;;;;;;;;5008150;28;20173;-87
2022/11/29 03:49:33;;;;;;;47.35;17.45;;;;;;;;;;5023287;28;20082;-88
2022/11/29 03:52:06;;;;;;;44.83;17.67;;;;;;;;;;4947932;29;20055;-87
2022/11/29 03:55:35;;;;;;;43.95;16.88;;;;;;;;;;4948422;29;20128;-88
2022/11/29 03:59:13;;;;;;;41.30;15.20;;;;;;;;;;4947343;28;20047;-87
2022/11/29 04:02:19;;;;;;;47.35;16.90;;;;;;;;;;4935416;29;20063;-87
2022/11/29 04:05:25;;;;;;;46.28;16.02;;;;;;;;;;4946863;29;20640;-88
2022/11/29 04:08:05;;;;;;;46.75;16.50;;;;;;;;;;4923564;29;20209;-87
2022/11/29 04:10:36;;;;;;;40.85;15.65;;;;;;;;;;4946923;29;20158;-88
2022/11/29 04:13:09;;;;;;;40.05;15.82;;;;;;;;;;4948105;29;20399;-88
2022/11/29 04:16:06;;;;;;;50.00;17.52;;;;;;;;;;4930944;29;20138;-87
2022/11/29 04:19:17;;;;;;;48.50;17.73;;;;;;;;;;4945861;28;20055;-87
2022/11/29 04:22:06;;;;;;;39.47;15.30;;;;;;;;;;4924691;29;20166;-87
2022/11/29 04:25:12;;;;;;;47.05;17.23;;;;;;;;;;4948182;29;20161;-87
2022/11/29 04:27:52;;;;;;;49.78;16.63;;;;;;;;;;4946739;29;20394;-87
2022/11/29 04:30:55;;;;;;;41.13;15.45;;;;;;;;;;5000611;28;20060;-88
2022/11/29 04:34:06;;;;;;;39.95;15.02;;;;;;;;;;5008234;28;20042;-87
2022/11/29 04:37:04;;;;;;;41.65;16.40;;;;;;;;;;5024914;28;20128;-87
2022/11/29 04:39:44;;;;;;;43.72;16.27;;;;;;;;;;4994233;28;20459;-87
2022/11/29 04:42:27;;;;;;;44.40;16.33;;;;;;;;;;4993914;28;20046;-88
2022/11/29 04:45:31;;;;;;;36.30;14.73;;;;;;;;;;4994506;28;20081;-87
2022/11/29 04:48:35;;;;;;;41.85;16.30;;;;;;;;;;5010947;28;20521;-87
2022/11/29 04:51:49;;;;;;;38.60;15.55;;;;;;;;;;4989357;28;20046;-88
2022/11/29 04:54:21;;;;;;;46.83;18.17;;;;;;;;;;4952728;28;20102;-88
2022/11/29 04:56:56;;;;;;;42.55;16.33;;;;;;;;;;4968395;28;20126;-87
2022/11/29 04:59:34;;;;;;;45.88;17.55;;;;;;;;;;4968798;28;20055;-88
2022/11/29 05:02:33;;;;;;;47.67;18.42;;;;;;;;;;4949361;28;20062;-87
2022/11/29 05:05:57;;;;;;;44.67;17.15;;;;;;;;;;4940447;28;20946;-87
2022/11/29 05:08:35;;;;;;;47.38;16.40;;;;;;;;;;4968517;28;20103;-87
2022/11/29 05:11:15;;;;;;;41.83;18.17;;;;;;;;;;4970301;28;20050;-87
2022/11/29 05:14:33;;;;;;;44.83;17.95;;;;;;;;;;4969864;28;20114;-88
2022/11/29 05:17:23;;;;;;;46.95;16.25;;;;;;;;;;4951768;28;20085;-88
2022/11/29 05:20:18;;;;;;;39.22;16.63;;;;;;;;;;4950135;28;20047;-88
2022/11/29 05:23:04;;;;;;;44.80;16.52;;;;;;;;;;4950741;28;20058;-87
2022/11/29 05:26:04;;;;;;;40.55;15.38;;;;;;;;;;4965122;28;20071;-87
2022/11/29 05:28:53;;;;;;;45.25;18.92;;;;;;;;;;4965982;28;20064;-87
2022/11/29 05:31:55;;;;;;;47.38;19.85;;;;;;;;;;4962516;28;20062;-87
2022/11/29 05:34:43;;;;;;;42.95;16.67;;;;;;;;;;4980464;28;20054;-87
2022/11/29 05:37:17;;;;;;;41.72;17.05;;;;;;;;;;4982270;28;20065;-87
2022/11/29 05:40:35;;;;;;;35.90;13.27;;;;;;;;;;4975212;28;20074;-87
2022/11/29 05:43:26;;;;;;;47.08;17.17;;;;;;;;;;4970894;28;20078;-87
2022/11/29 05:45:56;;;;;;;47.33;18.25;;;;;;;;;;4980437;28;20496;-87
2022/11/29 05:48:27;;;;;;;43.92;17.95;;;;;;;;;;4979643;28;20057;-87
2022/11/29 05:51:51;;;;;;;40.95;16.65;;;;;;;;;;4978699;28;20149;-87
2022/11/29 05:55:12;;;;;;;45.08;17.50;;;;;;;;;;5000768;28;20096;-87
2022/11/29 05:58:22;;;;;;;41.88;15.95;;;;;;;;;;5009593;28;20049;-88
2022/11/29 06:01:11;;;;;;;49.92;18.88;;;;;;;;;;4943282;28;20514;-88
2022/11/29 06:04:01;;;;;;;43.97;16.77;;;;;;;;;;4916680;29;20526;-88
2022/11/29 06:06:55;;;;;;;52.97;18.52;;;;;;;;;;4944485;28;20048;-88
2022/11/29 06:09:31;;;;;;;37.67;15.00;;;;;;;;;;4927041;29;20051;-89
2022/11/29 06:12:12;;;;;;;53.25;19.23;;;;;;;;;;4928440;28;20085;-88
2022/11/29 06:15:10;;;;;;;53.60;19.13;;;;;;;;;;4945744;28;20051;-88
2022/11/29 06:17:54;;;;;;;47.20;17.60;;;;;;;;;;4942724;28;20070;-88
2022/11/29 06:20:43;;;;;;;47.60;18.35;;;;;;;;;;4946517;28;20094;-88
2022/11/29 06:23:47;;;;;;;49.45;19.80;;;;;;;;;;4942588;29;20573;-88
2022/11/29 06:26:46;;;;;;;44.83;18.42;;;;;;;;;;4940851;28;20043;-87
2022/11/29 06:29:54;;;;;;;39.83;16.58;;;;;;;;;;4935139;29;20099;-86
2022/11/29 06:32:42;;;;;;;46.95;17.83;;;;;;;;;;4942094;28;20513;-86
2022/11/29 06:35:34;;;;;;;48.90;18.58;;;;;;;;;;4930426;28;20154;-87
2022/11/29 06:38:33;;;;;;;51.35;19.40;;;;;;;;;;5010065;28;20119;-87
2022/11/29 06:41:00;;;;;;;51.67;16.42;;;;;;;;;;4922722;29;20063;-86
2022/11/29 06:43:38;;;;;;;51.33;19.30;;;;;;;;;;4910647;29;20075;-87
2022/11/29 06:46:31;;;;;;;45.47;17.30;;;;;;;;;;4921227;29;20171;-86
2022/11/29 06:52:23;;;;;;;42.85;18.40;;;;;;;;;;4921054;29;20749;-87
2022/11/29 06:55:13;;;;;;;38.15;17.45;;;;;;;;;;4922200;29;20219;-86
2022/11/29 06:57:42;;;;;;;44.92;17.55;;;;;;;;;;4923060;29;20068;-88
2022/11/29 07:00:30;;;;;;;46.95;19.00;;;;;;;;;;4889227;29;20052;-87
2022/11/29 07:03:27;;;;;;;48.95;20.10;;;;;;;;;;4918647;29;20104;-87
2022/11/29 07:05:56;;;;;;;50.65;19.15;;;;;;;;;;4920961;29;20139;-87
2022/11/29 07:08:25;;;;;;;53.20;19.65;;;;;;;;;;4922200;29;20051;-87
2022/11/29 07:10:54;;;;;;;43.03;17.83;;;;;;;;;;4920524;29;20604;-87
2022/11/29 07:13:28;;;;;;;52.20;19.65;;;;;;;;;;4897378;29;20155;-88
2022/11/29 07:16:08;;;;;;;44.05;19.90;;;;;;;;;;4919382;29;20060;-87
2022/11/29 07:19:14;;;;;;;48.00;19.38;;;;;;;;;;5007438;28;20165;-87
2022/11/29 07:22:00;;;;;;;49.10;19.88;;;;;;;;;;5007036;28;20053;-87
2022/11/29 07:24:44;;;;;;;44.25;18.00;;;;;;;;;;5007989;28;20046;-87
2022/11/29 07:30:20;;;;;;;47.85;18.58;;;;;;;;;;5007232;28;20692;-87
2022/11/29 07:33:10;;;;;;;50.00;20.15;;;;;;;;;;5007465;28;20058;-87
2022/11/29 07:35:54;;;;;;;45.55;18.63;;;;;;;;;;5007966;28;20050;-87
2022/11/29 07:38:35;;;;;;;45.97;17.27;;;;;;;;;;4985066;28;20549;-87
2022/11/29 07:41:23;;;;;;;45.78;19.95;;;;;;;;;;5007899;28;20475;-87
2022/11/29 07:44:13;;;;;;;44.65;17.63;;;;;;;;;;4989098;28;20058;-87
2022/11/29 07:46:40;;;;;;;43.67;17.67;;;;;;;;;;5005105;28;20148;-87
2022/11/29 07:49:10;;;;;;;46.53;19.65;;;;;;;;;;5006657;28;20046;-88
2022/11/29 07:52:04;;;;;;;34.30;14.98;;;;;;;;;;4990532;28;20069;-87
2022/11/29 07:54:36;;;;;;;47.22;17.63;;;;;;;;;;5005825;28;20132;-87
2022/11/29 07:57:04;;;;;;;48.45;19.60;;;;;;;;;;5008066;28;20108;-87
2022/11/29 07:59:56;;;;;;;38.47;17.08;;;;;;;;;;5006817;28;20132;-87
2022/11/29 08:02:28;;;;;;;44.28;18.38;;;;;;;;;;4972236;28;20053;-87
2022/11/29 08:04:56;;;;;;;51.78;20.38;;;;;;;;;;5004442;28;20513;-87
2022/11/29 08:07:24;;;;;;;53.00;19.92;;;;;;;;;;5006169;28;20069;-87
2022/11/29 08:09:52;;;;;;;46.17;18.13;;;;;;;;;;5009631;28;20046;-87
2022/11/29 08:12:24;;;;;;;43.22;17.73;;;;;;;;;;5010107;28;20847;-87
2022/11/29 08:14:52;;;;;;;42.47;18.95;;;;;;;;;;5011927;28;20050;-87
2022/11/29 08:17:20;;;;;;;40.55;15.18;;;;;;;;;;4991230;28;20050;-87
2022/11/29 08:19:48;;;;;;;49.63;19.75;;;;;;;;;;4998401;28;20139;-87
2022/11/29 08:22:40;;;;;;;48.00;18.40;;;;;;;;;;5014018;28;20057;-87
2022/11/29 08:25:34;;;;;;;43.80;16.75;;;;;;;;;;4994885;28;20068;-87
2022/11/29 08:28:03;;;;;;;41.22;18.63;;;;;;;;;;5008554;28;20534;-87
2022/11/29 08:30:32;;;;;;;45.55;17.50;;;;;;;;;;5010753;28;20073;-87
2022/11/29 08:33:00;;;;;;;48.22;18.88;;;;;;;;;;5010412;28;20538;-87
2022/11/29 08:35:28;;;;;;;48.38;19.52;;;;;;;;;;5008687;28;20050;-87
2022/11/29 08:38:22;;;;;;;49.30;18.83;;;;;;;;;;4994501;28;20111;-87
2022/11/29 08:41:38;;;;;;;33.47;13.82;;;;;;;;;;5010541;28;20042;-87
2022/11/29 08:44:10;;;;;;;44.70;18.35;;;;;;;;;;4992918;28;20764;-87
2022/11/29 08:49:24;;;;;;;49.53;19.50;;;;;;;;;;5011142;28;20045;-87
2022/11/29 08:53:39;;;;;;;50.13;18.38;;;;;;;;;;4978888;28;20060;-87
2022/11/29 08:54:40;;;;;;;42.92;19.30;;;;;;;;;;4994273;28;20084;-87
2022/11/29 08:57:32;;;;;;;53.88;20.95;;;;;;;;;;4996261;28;20045;-87
2022/11/29 09:00:08;;;;;;;47.78;19.50;;;;;;;;;;5011417;28;20046;-87
2022/11/29 09:02:36;;;;;;;43.67;19.42;;;;;;;;;;4992209;28;20159;-87
2022/11/29 09:05:05;;;;;;;41.75;16.98;;;;;;;;;;5012589;28;20049;-87
2022/11/29 09:07:34;;;;;;;38.00;16.50;;;;;;;;;;5010475;28;20046;-87
2022/11/29 09:10:32;;;;;;;43.25;18.25;;;;;;;;;;5009000;28;20050;-87
2022/11/29 09:13:00;;;;;;;48.33;19.30;;;;;;;;;;5009231;28;20164;-87
2022/11/29 09:15:28;;;;;;;52.58;20.25;;;;;;;;;;5000053;28;20050;-87
2022/11/29 09:17:56;;;;;;;43.28;19.25;;;;;;;;;;4991736;28;20046;-87
2022/11/29 09:20:24;;;;;;;51.40;18.85;;;;;;;;;;5008728;28;20647;-87
2022/11/29 09:22:52;;;;;;;44.22;18.85;;;;;;;;;;4982057;28;20058;-87
2022/11/29 09:25:20;;;;;;;51.60;19.27;;;;;;;;;;5010477;28;20050;-87
2022/11/29 09:27:48;;;;;;;46.78;19.38;;;;;;;;;;4993501;28;20042;-87
2022/11/29 09:30:20;;;;;;;43.97;18.27;;;;;;;;;;5009261;28;20132;-87
2022/11/29 09:32:50;;;;;;;49.10;20.77;;;;;;;;;;4976553;28;20521;-88
2022/11/29 09:35:18;;;;;;;46.47;19.73;;;;;;;;;;4994253;28;20053;-87
2022/11/29 09:37:46;;;;;;;44.42;19.30;;;;;;;;;;4977000;28;20161;-87
2022/11/29 09:40:22;;;;;;;46.90;20.17;;;;;;;;;;5010923;28;20698;-88
2022/11/29 09:43:27;;;;;;;42.88;20.10;;;;;;;;;;4992936;28;20132;-87
2022/11/29 09:46:14;;;;;;;46.78;20.20;;;;;;;;;;4991140;28;20065;-87
2022/11/29 09:49:09;;;;;;;41.42;17.98;;;;;;;;;;5008391;28;20049;-86
2022/11/29 09:51:47;;;;;;;47.03;18.95;;;;;;;;;;5009313;28;20066;-87
2022/11/29 09:54:39;;;;;;;48.33;19.00;;;;;;;;;;5011489;28;20124;-87
2022/11/29 09:57:07;;;;;;;46.90;18.02;;;;;;;;;;5003351;28;20061;-87
2022/11/29 09:59:42;;;;;;;43.85;17.55;;;;;;;;;;5010484;28;20637;-87
2022/11/29 10:02:15;;;;;;;47.58;20.17;;;;;;;;;;5007426;28;20053;-87
2022/11/29 10:04:55;;;;;;;45.20;19.38;;;;;;;;;;5007534;28;20056;-87
2022/11/29 10:07:42;;;;;;;42.83;18.67;;;;;;;;;;5021346;28;20074;-87
2022/11/29 10:10:26;;;;;;;47.33;19.95;;;;;;;;;;4989950;28;20050;-87
2022/11/29 10:13:14;;;;;;;47.10;18.63;;;;;;;;;;5008048;28;20056;-87
2022/11/29 10:15:45;;;;;;;47.65;19.80;;;;;;;;;;5007107;28;20081;-87
2022/11/29 10:18:25;;;;;;;42.65;18.13;;;;;;;;;;5007900;28;20061;-87
2022/11/29 10:20:57;;;;;;;50.90;21.52;;;;;;;;;;5008033;28;20137;-87
2022/11/29 10:23:40;;;;;;;39.45;16.88;;;;;;;;;;4992208;28;20057;-87
2022/11/29 10:26:10;;;;;;;52.03;21.52;;;;;;;;;;5010546;28;20538;-88
2022/11/29 10:28:43;;;;;;;50.35;19.08;;;;;;;;;;5003758;28;20053;-87
2022/11/29 10:31:15;;;;;;;43.92;19.15;;;;;;;;;;4992722;28;20069;-87
2022/11/29 10:33:43;;;;;;;51.10;18.48;;;;;;;;;;5007921;28;20065;-87
2022/11/29 10:36:37;;;;;;;51.28;19.30;;;;;;;;;;4992746;28;20049;-87
2022/11/29 10:39:43;;;;;;;51.95;20.98;;;;;;;;;;5009057;28;20623;-87
2022/11/29 10:45:39;;;;;;;48.47;21.17;;;;;;;;;;5010832;28;20057;-87
2022/11/29 10:48:18;;;;;;;56.65;20.50;;;;;;;;;;4985219;28;20101;-87
2022/11/29 10:51:36;;;;;;;48.50;20.33;;;;;;;;;;4998442;28;20038;-87
2022/11/29 10:54:32;;;;;;;50.42;20.15;;;;;;;;;;4990330;28;20407;-87
2022/11/29 10:57:00;;;;;;;46.72;19.00;;;;;;;;;;5008386;28;20129;-87
2022/11/29 10:59:29;;;;;;;49.42;19.83;;;;;;;;;;5008995;28;20447;-87
2022/11/29 11:02:23;;;;;;;53.88;20.70;;;;;;;;;;4994029;28;20053;-87
2022/11/29 11:04:50;;;;;;;34.67;14.20;;;;;;;;;;5009804;28;20104;-87
2022/11/29 11:07:34;;;;;;;35.67;15.15;;;;;;;;;;4990261;28;20046;-87
2022/11/29 11:10:20;;;;;;;46.88;19.80;;;;;;;;;;5023641;28;20058;-87
2022/11/29 11:13:04;;;;;;;43.58;20.98;;;;;;;;;;5007217;28;20064;-87
2022/11/29 11:15:32;;;;;;;47.90;19.88;;;;;;;;;;5007662;28;20517;-87
2022/11/29 11:18:03;;;;;;;49.85;19.73;;;;;;;;;;4990000;28;20057;-87
2022/11/29 11:20:39;;;;;;;47.13;19.88;;;;;;;;;;4987131;28;20081;-87
2022/11/29 11:23:30;;;;;;;56.58;20.88;;;;;;;;;;4991280;28;20407;-87
2022/11/29 11:26:09;;;;;;;47.40;20.10;;;;;;;;;;4991541;28;20049;-87
2022/11/29 11:28:52;;;;;;;43.90;18.23;;;;;;;;;;5008041;28;20104;-87
2022/11/29 11:31:39;;;;;;;56.85;21.58;;;;;;;;;;5000456;28;20048;-87
2022/11/29 11:34:33;;;;;;;49.75;19.88;;;;;;;;;;4990618;28;20058;-87
2022/11/29 11:37:14;;;;;;;51.55;20.95;;;;;;;;;;4990264;28;20062;-86
2022/11/29 11:39:49;;;;;;;52.70;21.88;;;;;;;;;;5005424;28;20866;-87
2022/11/29 11:42:36;;;;;;;34.47;13.52;;;;;;;;;;5006242;28;20050;-88
2022/11/29 11:45:37;;;;;;;42.63;16.90;;;;;;;;;;4993061;28;20046;-87
2022/11/29 11:48:14;;;;;;;50.28;19.80;;;;;;;;;;4989902;28;20057;-87
2022/11/29 11:50:52;;;;;;;45.33;17.95;;;;;;;;;;5007194;28;20053;-87
2022/11/29 11:53:22;;;;;;;51.17;18.48;;;;;;;;;;4991109;28;20046;-87
2022/11/29 11:56:15;;;;;;;47.42;18.85;;;;;;;;;;5005608;28;20048;-86
2022/11/29 11:58:41;;;;;;;52.45;20.92;;;;;;;;;;5003612;28;20125;-87
2022/11/29 12:01:24;;;;;;;49.05;20.67;;;;;;;;;;4988055;28;20881;-87
2022/11/29 12:04:00;;;;;;;56.13;22.08;;;;;;;;;;4997087;28;20975;-87
2022/11/29 12:06:55;;;;;;;57.53;22.50;;;;;;;;;;5007768;28;20049;-87
2022/11/29 12:09:34;;;;;;;56.60;22.15;;;;;;;;;;4988792;28;20038;-87
2022/11/29 12:12:24;;;;;;;48.30;19.67;;;;;;;;;;5002974;28;20454;-87
2022/11/29 12:14:57;;;;;;;47.25;18.38;;;;;;;;;;5005630;28;20053;-88
2022/11/29 12:17:35;;;;;;;53.00;21.50;;;;;;;;;;5007529;28;20045;-87
2022/11/29 12:20:13;;;;;;;47.90;20.92;;;;;;;;;;5003391;28;20467;-87
2022/11/29 12:22:57;;;;;;;54.10;22.65;;;;;;;;;;5019637;28;20050;-87
2022/11/29 12:25:30;;;;;;;54.42;20.30;;;;;;;;;;5007072;28;20491;-87
2022/11/29 12:27:58;;;;;;;55.35;21.63;;;;;;;;;;4991533;28;20546;-87
2022/11/29 12:30:31;;;;;;;58.35;22.23;;;;;;;;;;5006555;28;20046;-87
2022/11/29 12:33:12;;;;;;;53.78;22.00;;;;;;;;;;5008133;28;20097;-87
2022/11/29 12:36:10;;;;;;;53.78;19.88;;;;;;;;;;5008715;28;20084;-87
2022/11/29 12:39:06;;;;;;;58.15;22.38;;;;;;;;;;5021178;28;20078;-87
2022/11/29 12:41:46;;;;;;;53.67;23.67;;;;;;;;;;4999687;28;20042;-87
2022/11/29 12:44:49;;;;;;;52.83;20.73;;;;;;;;;;4975438;28;20170;-87
2022/11/29 12:47:25;;;;;;;55.65;21.83;;;;;;;;;;4988278;28;20093;-87
2022/11/29 12:50:11;;;;;;;53.15;22.73;;;;;;;;;;5003292;28;20391;-87
2022/11/29 12:52:54;;;;;;;55.05;22.13;;;;;;;;;;5005982;28;20052;-87
2022/11/29 12:55:47;;;;;;;54.97;20.90;;;;;;;;;;5005826;28;20092;-87
2022/11/29 12:58:31;;;;;;;51.97;21.45;;;;;;;;;;5011118;28;20453;-87
2022/11/29 13:01:23;;;;;;;53.40;21.60;;;;;;;;;;4979726;28;20077;-87
2022/11/29 13:04:28;;;;;;;50.63;21.20;;;;;;;;;;5010485;28;20149;-87
2022/11/29 13:07:25;;;;;;;50.75;19.85;;;;;;;;;;4952800;28;20050;-88
2022/11/29 13:10:03;;;;;;;51.47;18.42;;;;;;;;;;4982469;28;20050;-87
2022/11/29 13:13:03;;;;;;;54.25;20.83;;;;;;;;;;4982712;28;20280;-87
2022/11/29 13:15:43;;;;;;;52.95;20.75;;;;;;;;;;4966018;28;20050;-88
2022/11/29 13:18:38;;;;;;;60.08;22.10;;;;;;;;;;4983674;28;20058;-88
2022/11/29 13:21:44;;;;;;;54.95;19.40;;;;;;;;;;4979520;28;20060;-87
2022/11/29 13:24:24;;;;;;;47.45;19.88;;;;;;;;;;4955297;28;20042;-87
2022/11/29 13:27:05;;;;;;;52.97;19.27;;;;;;;;;;4967578;28;20109;-87
2022/11/29 13:29:59;;;;;;;51.72;21.48;;;;;;;;;;4983442;28;20129;-87
2022/11/29 13:32:34;;;;;;;57.95;20.75;;;;;;;;;;4949164;28;20054;-87
2022/11/29 13:35:40;;;;;;;51.13;20.90;;;;;;;;;;4981142;28;20062;-87
2022/11/29 13:38:26;;;;;;;52.33;21.52;;;;;;;;;;4974402;28;20135;-87
2022/11/29 13:41:26;;;;;;;52.70;21.85;;;;;;;;;;4985688;28;20050;-88
2022/11/29 13:44:17;;;;;;;49.08;20.38;;;;;;;;;;4994341;28;20116;-87
2022/11/29 13:47:07;;;;;;;54.58;22.08;;;;;;;;;;4991197;28;20119;-86
2022/11/29 13:50:01;;;;;;;49.60;19.85;;;;;;;;;;4987861;28;20062;-87
2022/11/29 13:53:03;;;;;;;59.50;21.13;;;;;;;;;;5010207;28;20050;-86
2022/11/29 13:55:30;;;;;;;56.20;22.90;;;;;;;;;;5012235;28;20213;-87
2022/11/29 13:58:29;;;;;;;44.05;18.10;;;;;;;;;;4975072;28;20038;-87
2022/11/29 14:01:09;;;;;;;55.72;21.75;;;;;;;;;;5008170;28;20054;-87
2022/11/29 14:03:42;;;;;;;45.95;19.42;;;;;;;;;;5022623;28;20112;-87
2022/11/29 14:06:39;;;;;;;58.17;21.77;;;;;;;;;;4977544;28;20128;-87
2022/11/29 14:09:26;;;;;;;53.72;22.00;;;;;;;;;;4972959;28;20061;-87
2022/11/29 14:12:01;;;;;;;55.05;21.63;;;;;;;;;;4990460;28;20057;-87
2022/11/29 14:14:53;;;;;;;56.33;22.52;;;;;;;;;;4973424;28;20050;-87
2022/11/29 14:17:32;;;;;;;50.50;19.83;;;;;;;;;;4989050;28;20058;-87
2022/11/29 14:20:38;;;;;;;53.22;23.40;;;;;;;;;;4990915;28;20060;-86
2022/11/29 14:23:08;;;;;;;63.92;22.02;;;;;;;;;;4990735;28;20042;-86
2022/11/29 14:25:57;;;;;;;59.13;23.25;;;;;;;;;;5008781;28;20054;-86
2022/11/29 14:28:27;;;;;;;52.35;21.52;;;;;;;;;;4988430;28;20176;-86
2022/11/29 14:31:00;;;;;;;59.50;24.20;;;;;;;;;;4991897;28;20042;-86
2022/11/29 14:34:07;;;;;;;60.70;23.15;;;;;;;;;;5007679;28;20054;-87
2022/11/29 14:36:44;;;;;;;69.88;24.17;;;;;;;;;;5008183;28;20057;-86
2022/11/29 14:39:40;;;;;;;71.28;23.73;;;;;;;;;;5008088;28;20080;-86
2022/11/29 14:42:21;;;;;;;57.33;24.10;;;;;;;;;;4973065;28;20975;-87
2022/11/29 14:44:53;;;;;;;57.58;22.20;;;;;;;;;;5007226;28;20137;-87
2022/11/29 14:47:30;;;;;;;66.72;25.67;;;;;;;;;;5007251;28;20112;-87
2022/11/29 14:50:02;;;;;;;60.60;23.77;;;;;;;;;;5008780;28;20041;-87
2022/11/29 14:52:34;;;;;;;64.20;26.77;;;;;;;;;;5009304;28;20046;-85
2022/11/29 14:55:04;;;;;;;61.05;23.13;;;;;;;;;;5008891;28;20104;-85
2022/11/29 14:58:00;;;;;;;57.53;23.98;;;;;;;;;;4988568;28;20401;-85
2022/11/29 15:00:46;;;;;;;59.13;22.85;;;;;;;;;;5006717;28;20045;-85
2022/11/29 15:03:32;;;;;;;;;;;;;;;;;;4992279;28;20104;-89
2022/11/29 15:06:25;;;;;;;51.53;21.88;;;;;;;;;;5005701;28;19921;-85
2022/11/29 15:09:04;;;;;;;64.20;23.90;;;;;;;;;;5007540;28;20053;-85
2022/11/29 15:12:00;;;;;;;65.45;24.33;;;;;;;;;;4989067;28;20518;-88
2022/11/29 15:14:42;;;;;;;59.90;23.00;;;;;;;;;;5023326;28;20046;-87
2022/11/29 15:17:35;;;;;;;60.38;22.20;;;;;;;;;;5009530;28;20053;-87
2022/11/29 15:20:43;;;;;;;52.75;20.42;;;;;;;;;;5008438;28;20553;-87
2022/11/29 15:23:17;;;;;;;55.35;23.13;;;;;;;;;;5008773;28;20053;-87
2022/11/29 15:25:50;;;;;;;57.70;21.15;;;;;;;;;;5012942;28;20124;-87
2022/11/29 15:28:42;;;;;;;63.58;23.88;;;;;;;;;;4988555;28;20048;-87
2022/11/29 15:31:13;;;;;;;54.97;21.88;;;;;;;;;;4993419;28;20042;-87
2022/11/29 15:33:44;;;;;;;56.80;23.25;;;;;;;;;;5011397;28;20391;-88
2022/11/29 15:36:18;;;;;;;56.00;24.38;;;;;;;;;;5008362;28;20104;-88
2022/11/29 15:38:52;;;;;;;64.63;25.13;;;;;;;;;;4994079;28;20048;-87
2022/11/29 15:41:21;;;;;;;56.17;21.83;;;;;;;;;;5012256;28;20129;-87
2022/11/29 15:44:01;;;;;;;72.85;26.40;;;;;;;;;;4995361;28;20052;-88
2022/11/29 15:46:32;;;;;;;56.30;22.25;;;;;;;;;;4987906;28;20096;-87
2022/11/29 15:49:16;;;;;;;60.33;22.90;;;;;;;;;;5008049;28;20138;-87
2022/11/29 15:51:49;;;;;;;57.38;20.75;;;;;;;;;;5011033;28;20045;-87
2022/11/29 15:54:38;;;;;;;51.78;22.17;;;;;;;;;;5011923;28;20060;-88
2022/11/29 15:57:17;;;;;;;55.88;22.52;;;;;;;;;;5010226;28;20042;-87
2022/11/29 16:00:22;;;;;;;50.05;20.92;;;;;;;;;;5010080;28;20042;-87
2022/11/29 16:03:01;;;;;;;58.15;22.80;;;;;;;;;;4993856;28;20451;-88
2022/11/29 16:05:59;;;;;;;62.28;22.00;;;;;;;;;;4991487;28;20042;-87
2022/11/29 16:08:33;;;;;;;53.00;21.15;;;;;;;;;;5007379;28;20057;-87